Time;durP1;ratioP1;P1;durP2;ratioP2;P2;SDS_P1;SDS_P2;PMS_P1;PMS_P2;Temp;Humidity;BMP_temperature;BMP_pressure;BME280_temperature;BME280_humidity;BME280_pressure;Samples;Min_cycle;Max_cycle;Signal;HPM_P1;HPM_P2
2024/01/03 00:01:38;;;;;;;8.38;2.50;;;8.90;99.90;;;;;;5038705;28;20087;-71
2024/01/03 00:04:07;;;;;;;8.83;2.50;;;8.90;99.90;;;;;;5044293;28;20037;-71
2024/01/03 00:06:33;;;;;;;7.63;2.28;;;8.80;99.90;;;;;;5045100;28;20275;-71
2024/01/03 00:09:00;;;;;;;12.10;2.70;;;8.80;99.90;;;;;;5042333;28;20029;-71
2024/01/03 00:11:28;;;;;;;;;;;8.80;99.90;;;;;;5032488;28;20438;-71
2024/01/03 00:14:21;;;;;;;7.57;3.30;;;8.90;99.90;;;;;;5038103;28;19913;-70
2024/01/03 00:16:46;;;;;;;6.97;2.35;;;8.90;99.90;;;;;;5045262;28;20529;-70
2024/01/03 00:19:16;;;;;;;11.23;2.70;;;9.00;99.90;;;;;;5036915;28;20033;-71
2024/01/03 00:21:42;;;;;;;14.93;2.65;;;9.10;99.90;;;;;;5040974;28;20123;-71
2024/01/03 00:24:11;;;;;;;12.33;2.93;;;9.10;99.90;;;;;;5048602;28;20592;-71
2024/01/03 00:26:39;;;;;;;10.45;2.80;;;9.10;99.90;;;;;;5074952;28;20048;-71
2024/01/03 00:29:07;;;;;;;12.07;2.40;;;9.20;99.90;;;;;;5035412;28;20109;-72
2024/01/03 00:31:43;;;;;;;7.15;2.22;;;9.10;99.90;;;;;;5037464;28;20034;-71
2024/01/03 00:34:21;;;;;;;10.32;2.92;;;9.20;99.90;;;;;;5048773;28;20020;-71
2024/01/03 00:36:48;;;;;;;13.27;2.33;;;9.10;99.90;;;;;;5038285;28;20498;-71
2024/01/03 00:39:13;;;;;;;;;;;9.00;99.90;;;;;;5041617;28;20082;-71
2024/01/03 00:41:39;;;;;;;17.20;2.35;;;9.00;99.90;;;;;;5046474;28;19916;-71
2024/01/03 00:44:04;;;;;;;10.80;2.10;;;8.90;99.90;;;;;;5041175;28;20510;-71
2024/01/03 00:46:30;;;;;;;8.57;2.47;;;8.90;99.90;;;;;;5038409;28;20033;-71
2024/01/03 00:48:56;;;;;;;5.85;2.25;;;8.80;99.90;;;;;;5047358;28;20524;-71
2024/01/03 00:51:22;;;;;;;10.20;2.73;;;8.80;99.90;;;;;;5042457;28;20400;-71
2024/01/03 00:53:47;;;;;;;5.82;2.20;;;8.80;99.90;;;;;;5044579;28;20067;-71
2024/01/03 00:56:13;;;;;;;13.83;2.40;;;8.80;99.90;;;;;;5041965;28;20533;-71
2024/01/03 00:58:40;;;;;;;6.90;2.35;;;8.80;99.90;;;;;;5039685;28;20037;-71
2024/01/03 01:01:05;;;;;;;8.25;3.30;;;8.70;99.90;;;;;;5042185;28;20028;-70
2024/01/03 01:03:31;;;;;;;4.70;2.08;;;8.60;99.90;;;;;;5046244;28;20024;-70
2024/01/03 01:05:57;;;;;;;19.40;2.43;;;8.60;99.90;;;;;;5048876;28;20064;-71
2024/01/03 01:08:23;;;;;;;7.80;2.45;;;8.80;99.90;;;;;;5048012;28;20044;-71
2024/01/03 01:10:48;;;;;;;7.37;1.87;;;8.60;99.90;;;;;;5073993;28;20423;-71
2024/01/03 01:13:14;;;;;;;7.00;2.67;;;8.60;99.90;;;;;;5042334;28;20490;-71
2024/01/03 01:15:40;;;;;;;9.27;2.40;;;8.60;99.90;;;;;;5039611;28;20069;-70
2024/01/03 01:18:05;;;;;;;7.20;2.33;;;8.50;99.90;;;;;;5040710;28;20586;-71
2024/01/03 01:20:31;;;;;;;9.27;2.83;;;8.70;99.90;;;;;;5061063;28;20032;-71
2024/01/03 01:22:56;;;;;;;6.83;2.53;;;8.60;99.90;;;;;;5061109;28;20028;-71
2024/01/03 01:25:22;;;;;;;5.13;2.43;;;8.50;99.90;;;;;;5041814;28;20079;-71
2024/01/03 01:27:48;;;;;;;6.10;2.50;;;8.40;99.90;;;;;;5041327;28;20041;-70
2024/01/03 01:30:13;;;;;;;10.60;2.10;;;8.50;99.90;;;;;;5040115;28;20040;-71
2024/01/03 01:32:39;;;;;;;10.40;2.53;;;8.50;99.90;;;;;;5042897;28;20029;-71
2024/01/03 01:35:05;;;;;;;10.73;2.03;;;8.70;99.90;;;;;;5042377;28;20029;-71
2024/01/03 01:37:31;;;;;;;8.63;2.13;;;8.70;99.90;;;;;;5072334;28;20113;-71
2024/01/03 01:39:56;;;;;;;5.43;2.10;;;8.80;99.90;;;;;;5059022;28;20140;-71
2024/01/03 01:42:24;;;;;;;7.17;2.10;;;8.70;99.90;;;;;;5041740;28;20036;-71
2024/01/03 01:44:49;;;;;;;9.25;2.72;;;8.60;99.90;;;;;;5038559;28;20064;-72
2024/01/03 01:47:16;;;;;;;10.77;2.63;;;8.70;99.90;;;;;;5045560;28;20064;-72
2024/01/03 01:49:42;;;;;;;6.85;2.35;;;8.60;99.90;;;;;;5043577;28;20040;-71
2024/01/03 01:52:09;;;;;;;10.80;2.65;;;8.60;99.90;;;;;;5041200;28;20121;-71
2024/01/03 01:54:34;;;;;;;11.85;2.55;;;8.60;99.90;;;;;;5045905;28;20104;-72
2024/01/03 01:57:01;;;;;;;7.80;1.98;;;8.60;99.90;;;;;;5042899;28;20448;-72
2024/01/03 01:59:27;;;;;;;;;;;8.70;99.90;;;;;;5041712;28;20033;-71
2024/01/03 02:01:53;;;;;;;7.57;2.42;;;8.80;99.90;;;;;;5042252;28;19916;-71
2024/01/03 02:04:19;;;;;;;10.80;2.30;;;8.80;99.90;;;;;;5035979;28;20454;-71
2024/01/03 02:06:44;;;;;;;13.57;2.03;;;8.60;99.90;;;;;;5045609;28;20075;-71
2024/01/03 02:09:10;;;;;;;5.97;2.70;;;8.50;99.90;;;;;;5045074;28;20032;-71
2024/01/03 02:11:46;;;;;;;12.07;2.33;;;8.50;99.90;;;;;;5043466;28;20048;-71
2024/01/03 02:14:11;;;;;;;10.45;2.17;;;8.50;99.90;;;;;;5042143;28;20029;-71
2024/01/03 02:16:37;;;;;;;5.10;2.03;;;8.60;99.90;;;;;;5054006;28;20124;-72
2024/01/03 02:19:06;;;;;;;4.50;2.40;;;8.70;99.90;;;;;;5043692;28;20037;-71
2024/01/03 02:21:31;;;;;;;11.38;2.13;;;8.60;99.90;;;;;;5046003;28;20033;-71
2024/01/03 02:23:57;;;;;;;6.13;2.00;;;8.50;99.90;;;;;;5049730;28;20039;-71
2024/01/03 02:26:23;;;;;;;5.00;2.53;;;8.40;99.90;;;;;;5050277;28;20521;-71
2024/01/03 02:28:48;;;;;;;4.00;1.73;;;8.50;99.90;;;;;;5083720;28;20048;-71
2024/01/03 02:31:14;;;;;;;7.70;2.13;;;8.50;99.90;;;;;;5051440;28;20032;-71
2024/01/03 02:33:39;;;;;;;7.00;2.13;;;8.50;99.90;;;;;;5050438;28;20040;-71
2024/01/03 02:36:06;;;;;;;10.10;2.20;;;8.70;99.90;;;;;;5050506;28;20635;-71
2024/01/03 02:38:31;;;;;;;8.75;2.22;;;8.60;99.90;;;;;;5051115;28;20021;-71
2024/01/03 02:40:57;;;;;;;5.77;1.77;;;8.40;99.90;;;;;;5050978;28;20028;-71
2024/01/03 02:43:23;;;;;;;5.70;1.80;;;8.40;99.90;;;;;;5051348;28;20495;-71
2024/01/03 02:45:49;;;;;;;;;;;8.40;99.90;;;;;;5050018;28;20063;-71
2024/01/03 02:48:14;;;;;;;6.68;1.90;;;8.50;99.90;;;;;;5051098;28;20973;-71
2024/01/03 02:50:44;;;;;;;5.87;2.20;;;8.40;99.90;;;;;;5051211;28;20036;-71
2024/01/03 02:53:10;;;;;;;3.15;1.80;;;8.40;99.90;;;;;;5051062;28;20441;-71
2024/01/03 02:55:36;;;;;;;9.68;2.38;;;8.50;99.90;;;;;;5050684;28;20080;-71
2024/01/03 02:58:02;;;;;;;8.32;1.60;;;8.40;99.90;;;;;;5050582;28;20486;-71
2024/01/03 03:00:27;;;;;;;2.35;1.60;;;8.30;99.90;;;;;;5050729;28;20028;-71
2024/01/03 03:02:53;;;;;;;4.60;1.80;;;8.40;99.90;;;;;;5051263;28;20029;-71
2024/01/03 03:05:18;;;;;;;3.70;1.37;;;8.50;99.90;;;;;;5050995;28;20029;-71
2024/01/03 03:07:44;;;;;;;7.63;2.00;;;8.60;99.90;;;;;;5050667;28;20403;-72
2024/01/03 03:10:11;;;;;;;4.53;1.30;;;8.70;99.90;;;;;;5052379;28;20029;-71
2024/01/03 03:12:37;;;;;;;7.97;2.40;;;8.50;99.90;;;;;;5050015;28;20119;-71
2024/01/03 03:15:04;;;;;;;3.22;1.35;;;8.60;99.90;;;;;;5048868;28;20108;-72
2024/01/03 03:17:30;;;;;;;6.18;1.98;;;8.40;99.90;;;;;;5050292;28;20086;-71
2024/01/03 03:19:56;;;;;;;3.83;1.77;;;;;;;;;;5051003;28;20479;-71
2024/01/03 03:22:22;;;;;;;3.88;1.65;;;8.30;99.90;;;;;;5050776;28;20035;-71
2024/01/03 03:24:48;;;;;;;7.23;1.60;;;8.20;99.90;;;;;;5050580;28;20029;-71
2024/01/03 03:27:14;;;;;;;7.50;1.45;;;8.10;99.90;;;;;;5049417;28;20059;-71
2024/01/03 03:29:40;;;;;;;5.83;1.90;;;8.10;99.90;;;;;;5048908;28;20029;-71
2024/01/03 03:32:10;;;;;;;5.47;1.70;;;8.10;99.90;;;;;;5050206;28;20386;-71
2024/01/03 03:34:36;;;;;;;5.45;1.73;;;8.10;99.90;;;;;;5049386;28;20025;-71
2024/01/03 03:37:02;;;;;;;3.03;1.50;;;8.20;99.90;;;;;;5050784;28;20499;-71
2024/01/03 03:39:27;;;;;;;7.70;1.60;;;8.30;99.90;;;;;;5049461;28;20029;-71
2024/01/03 03:41:53;;;;;;;9.33;2.33;;;8.20;99.90;;;;;;5050228;28;20448;-72
2024/01/03 03:44:19;;;;;;;9.57;1.90;;;8.00;99.90;;;;;;5049969;28;20017;-71
2024/01/03 03:46:44;;;;;;;4.13;1.70;;;8.10;99.90;;;;;;5049677;28;20271;-71
2024/01/03 03:49:10;;;;;;;10.50;1.83;;;8.10;99.90;;;;;;5050263;28;20033;-70
2024/01/03 03:51:35;;;;;;;3.20;1.57;;;8.10;99.90;;;;;;5050038;28;20533;-70
2024/01/03 03:54:01;;;;;;;3.07;1.57;;;8.10;99.90;;;;;;5049571;28;20029;-70
2024/01/03 03:56:30;;;;;;;3.90;2.00;;;7.90;99.90;;;;;;5049814;28;20025;-71
2024/01/03 03:58:56;;;;;;;2.72;1.65;;;7.90;99.90;;;;;;5047260;28;20446;-70
2024/01/03 04:01:22;;;;;;;3.47;1.63;;;8.00;99.90;;;;;;5050136;28;20068;-71
2024/01/03 04:03:47;;;;;;;5.10;1.80;;;8.00;99.90;;;;;;5049236;28;20266;-70
2024/01/03 04:06:15;;;;;;;9.63;2.30;;;8.10;99.90;;;;;;5050306;28;20264;-71
2024/01/03 04:08:45;;;;;;;5.90;1.60;;;8.00;99.90;;;;;;5050138;28;20039;-72
2024/01/03 04:11:11;;;;;;;6.28;2.17;;;8.10;99.90;;;;;;5053113;28;20021;-72
2024/01/03 04:13:38;;;;;;;7.18;2.83;;;8.00;99.90;;;;;;5054172;28;20028;-71
2024/01/03 04:16:10;;;;;;;3.70;1.60;;;8.10;99.90;;;;;;5054069;28;20029;-72
2024/01/03 04:18:35;;;;;;;4.13;1.35;;;8.10;99.90;;;;;;5054213;28;20079;-71
2024/01/03 04:21:05;;;;;;;8.30;1.93;;;8.20;99.90;;;;;;5052696;28;20033;-71
2024/01/03 04:23:31;;;;;;;5.13;1.63;;;8.10;99.90;;;;;;5054112;28;20029;-72
2024/01/03 04:25:56;;;;;;;10.70;1.90;;;8.20;99.90;;;;;;5053908;28;20091;-72
2024/01/03 04:28:22;;;;;;;10.60;1.50;;;8.10;99.90;;;;;;5052297;28;20032;-72
2024/01/03 04:30:47;;;;;;;3.93;1.57;;;8.10;99.90;;;;;;5054016;28;20469;-72
2024/01/03 04:33:13;;;;;;;6.10;1.70;;;8.10;99.90;;;;;;5053804;28;20031;-71
2024/01/03 04:35:39;;;;;;;6.33;1.97;;;8.00;99.90;;;;;;5053167;28;20410;-71
2024/01/03 04:38:04;;;;;;;7.25;1.80;;;8.10;99.90;;;;;;5053457;28;20487;-71
2024/01/03 04:40:31;;;;;;;3.60;1.67;;;8.10;99.90;;;;;;5052812;28;20037;-71
2024/01/03 04:42:57;;;;;;;2.85;1.65;;;8.10;99.90;;;;;;5052975;28;20541;-71
2024/01/03 04:45:23;;;;;;;5.78;1.90;;;8.10;99.90;;;;;;5053427;28;20036;-72
2024/01/03 04:47:48;;;;;;;2.47;1.43;;;8.20;99.90;;;;;;5051706;28;20084;-71
2024/01/03 04:50:14;;;;;;;3.90;1.60;;;8.10;99.90;;;;;;5053737;28;20474;-71
2024/01/03 04:52:40;;;;;;;9.80;1.60;;;8.10;99.90;;;;;;5053552;28;20036;-72
2024/01/03 04:55:06;;;;;;;10.00;1.73;;;8.10;99.90;;;;;;5053914;28;20581;-71
2024/01/03 04:57:36;;;;;;;8.55;1.95;;;8.10;99.90;;;;;;5054217;28;20033;-71
2024/01/03 05:00:06;;;;;;;8.60;1.58;;;8.20;99.90;;;;;;5052502;28;20091;-72
2024/01/03 05:02:31;;;;;;;8.55;1.55;;;8.10;99.90;;;;;;5054313;28;20032;-72
2024/01/03 05:04:57;;;;;;;10.57;2.50;;;8.00;99.90;;;;;;5053236;28;20028;-71
2024/01/03 05:07:24;;;;;;;4.60;1.53;;;8.10;99.90;;;;;;5051836;28;20028;-72
2024/01/03 05:09:49;;;;;;;2.47;1.33;;;8.10;99.90;;;;;;5056059;28;20025;-72
2024/01/03 05:12:15;;;;;;;3.20;1.73;;;8.10;99.90;;;;;;5054141;28;20027;-72
2024/01/03 05:14:41;;;;;;;10.57;1.77;;;8.10;99.90;;;;;;5053070;28;20036;-71
2024/01/03 05:17:07;;;;;;;4.75;1.60;;;8.20;99.90;;;;;;5052990;28;20063;-71
2024/01/03 05:19:32;;;;;;;7.00;2.13;;;8.40;99.90;;;;;;5052204;28;20037;-72
2024/01/03 05:21:58;;;;;;;2.83;1.50;;;8.40;99.90;;;;;;5051975;28;20056;-71
2024/01/03 05:24:24;;;;;;;4.87;1.70;;;8.40;99.90;;;;;;5051671;28;20033;-71
2024/01/03 05:26:49;;;;;;;5.73;1.53;;;8.60;99.90;;;;;;5052832;28;20048;-71
2024/01/03 05:29:15;;;;;;;5.43;1.77;;;8.50;99.90;;;;;;5051465;28;20029;-71
2024/01/03 05:31:40;;;;;;;4.53;1.50;;;8.50;99.90;;;;;;5052475;28;20490;-72
2024/01/03 05:34:08;;;;;;;3.10;1.80;;;8.50;99.90;;;;;;5052406;28;20029;-71
2024/01/03 05:36:34;;;;;;;7.25;1.98;;;8.60;99.90;;;;;;5052010;28;20051;-71
2024/01/03 05:38:59;;;;;;;4.50;1.50;;;8.60;99.90;;;;;;5051319;28;20037;-72
2024/01/03 05:41:25;;;;;;;5.83;1.50;;;8.60;99.90;;;;;;5051672;28;20310;-71
2024/01/03 05:43:51;;;;;;;3.80;1.63;;;8.70;99.90;;;;;;5051923;28;20033;-72
2024/01/03 05:46:16;;;;;;;3.57;1.40;;;8.70;99.90;;;;;;5052365;28;20029;-71
2024/01/03 05:48:42;;;;;;;3.97;1.20;;;8.60;99.90;;;;;;5052432;28;20083;-72
2024/01/03 05:51:10;;;;;;;3.60;1.40;;;8.50;99.90;;;;;;5052026;28;20025;-71
2024/01/03 05:53:35;;;;;;;4.25;1.42;;;8.50;99.90;;;;;;5051802;28;20025;-72
2024/01/03 05:56:01;;;;;;;4.87;1.80;;;8.60;99.90;;;;;;5052229;28;20036;-72
2024/01/03 05:58:26;;;;;;;3.37;1.20;;;8.50;99.90;;;;;;5051751;28;20175;-72
2024/01/03 06:00:53;;;;;;;4.53;1.60;;;8.50;99.90;;;;;;5042380;28;20415;-72
2024/01/03 06:03:19;;;;;;;5.20;1.40;;;8.60;99.90;;;;;;5048721;28;20490;-72
2024/01/03 06:05:44;;;;;;;5.10;1.60;;;8.40;99.90;;;;;;5041808;28;20025;-72
2024/01/03 06:08:10;;;;;;;5.78;1.00;;;8.40;99.90;;;;;;5051415;28;20033;-71
2024/01/03 06:10:36;;;;;;;3.63;1.75;;;8.40;99.90;;;;;;5046989;28;20171;-72
2024/01/03 06:13:02;;;;;;;4.07;1.52;;;8.30;99.90;;;;;;5053355;28;20029;-72
2024/01/03 06:15:27;;;;;;;3.57;1.50;;;8.30;99.90;;;;;;5041419;28;20037;-71
2024/01/03 06:17:53;;;;;;;6.03;1.20;;;8.10;99.90;;;;;;5032067;28;20076;-72
2024/01/03 06:20:19;;;;;;;3.53;1.50;;;8.10;99.90;;;;;;5030634;28;20036;-71
2024/01/03 06:22:44;;;;;;;3.40;1.63;;;8.00;99.90;;;;;;5030461;28;20024;-72
2024/01/03 06:25:10;;;;;;;8.60;1.93;;;8.20;99.90;;;;;;5034974;28;20017;-71
2024/01/03 06:27:35;;;;;;;7.20;1.30;;;8.00;99.90;;;;;;5047019;28;20081;-72
2024/01/03 06:30:01;;;;;;;4.47;1.50;;;8.00;99.90;;;;;;5031706;28;20041;-71
2024/01/03 06:32:27;;;;;;;4.33;1.47;;;8.00;99.90;;;;;;5031877;28;20040;-72
2024/01/03 06:34:52;;;;;;;4.27;1.53;;;8.20;99.90;;;;;;5042222;28;20035;-72
2024/01/03 06:37:18;;;;;;;3.53;1.53;;;8.20;99.90;;;;;;5051159;28;20036;-72
2024/01/03 06:39:43;;;;;;;5.17;1.67;;;8.30;99.90;;;;;;5051513;28;20056;-71
2024/01/03 06:42:09;;;;;;;5.73;1.73;;;8.20;99.90;;;;;;5051533;28;20525;-72
2024/01/03 06:44:34;;;;;;;8.40;1.63;;;8.50;99.90;;;;;;5032262;28;20117;-72
2024/01/03 06:47:00;;;;;;;4.97;1.43;;;8.60;99.90;;;;;;5036935;28;20024;-72
2024/01/03 06:49:26;;;;;;;3.97;1.23;;;8.80;99.90;;;;;;5051499;28;20029;-71
2024/01/03 06:51:51;;;;;;;4.53;1.50;;;8.70;99.90;;;;;;5046327;28;20057;-72
2024/01/03 06:54:17;;;;;;;7.40;1.50;;;8.30;99.90;;;;;;5031139;28;20029;-72
2024/01/03 06:56:43;;;;;;;3.10;1.40;;;8.30;99.90;;;;;;5029603;28;20025;-71
2024/01/03 06:59:09;;;;;;;7.90;1.37;;;8.60;99.90;;;;;;5035005;28;20494;-72
2024/01/03 07:01:35;;;;;;;2.20;1.30;;;8.60;99.90;;;;;;5038780;28;20455;-71
2024/01/03 07:04:02;;;;;;;6.13;1.50;;;8.40;99.90;;;;;;5043739;28;20021;-71
2024/01/03 07:06:28;;;;;;;3.72;1.30;;;8.60;99.90;;;;;;5063973;28;20032;-71
2024/01/03 07:08:54;;;;;;;1.95;1.27;;;8.80;99.90;;;;;;5038438;28;20045;-72
2024/01/03 07:11:20;;;;;;;4.97;1.13;;;8.90;99.90;;;;;;5036781;28;20111;-71
2024/01/03 07:13:46;;;;;;;1.67;1.20;;;8.90;99.90;;;;;;5044515;28;20055;-72
2024/01/03 07:16:11;;;;;;;2.67;1.00;;;9.30;99.90;;;;;;5042178;28;20479;-71
2024/01/03 07:18:37;;;;;;;10.02;1.80;;;9.30;99.90;;;;;;5037046;28;20033;-71
2024/01/03 07:21:04;;;;;;;5.68;1.35;;;9.50;99.90;;;;;;5039257;28;20045;-70
2024/01/03 07:23:30;;;;;;;3.72;1.35;;;9.60;99.90;;;;;;5055578;28;20029;-71
2024/01/03 07:25:55;;;;;;;4.15;1.23;;;9.50;99.90;;;;;;5042579;28;20033;-72
2024/01/03 07:28:21;;;;;;;2.77;1.10;;;9.80;99.90;;;;;;5043744;28;20585;-71
2024/01/03 07:30:46;;;;;;;5.43;1.17;;;9.80;99.90;;;;;;5039922;28;20025;-69
2024/01/03 07:33:12;;;;;;;5.93;1.47;;;9.70;99.90;;;;;;5042808;28;20070;-71
2024/01/03 07:35:38;;;;;;;4.13;1.10;;;9.60;99.90;;;;;;5043866;28;20032;-71
2024/01/03 07:38:05;;;;;;;4.47;1.57;;;9.60;99.90;;;;;;5050816;28;20025;-71
2024/01/03 07:40:31;;;;;;;3.53;1.30;;;9.60;99.90;;;;;;5042130;28;20120;-72
2024/01/03 07:42:56;;;;;;;3.50;1.13;;;9.60;99.90;;;;;;5032589;28;20466;-71
2024/01/03 07:45:22;;;;;;;2.43;1.00;;;9.50;99.90;;;;;;5045529;28;20736;-72
2024/01/03 07:47:48;;;;;;;3.10;1.00;;;9.40;99.90;;;;;;5036554;28;20102;-75
2024/01/03 07:50:13;;;;;;;1.33;0.90;;;9.50;99.90;;;;;;5039333;28;20074;-71
2024/01/03 07:52:39;;;;;;;3.17;0.97;;;9.40;99.90;;;;;;5043249;28;20057;-72
2024/01/03 07:55:05;;;;;;;4.13;0.90;;;9.60;99.90;;;;;;5039882;28;20079;-71
2024/01/03 07:57:30;;;;;;;2.03;1.10;;;9.70;99.90;;;;;;5021539;28;20021;-69
2024/01/03 07:59:56;;;;;;;5.70;1.57;;;9.80;99.90;;;;;;5036459;28;20407;-72
2024/01/03 08:02:21;;;;;;;5.37;1.57;;;9.70;99.90;;;;;;5036046;28;20029;-72
2024/01/03 08:04:47;;;;;;;5.77;1.10;;;9.90;99.90;;;;;;5038978;28;20017;-72
2024/01/03 08:07:13;;;;;;;4.70;1.20;;;9.90;99.90;;;;;;5049026;28;20029;-71
2024/01/03 08:09:38;;;;;;;6.60;1.40;;;9.90;99.90;;;;;;5046753;28;20029;-71
2024/01/03 08:12:06;;;;;;;1.53;1.07;;;9.90;99.90;;;;;;5045723;28;20036;-72
2024/01/03 08:14:31;;;;;;;3.15;0.90;;;9.80;99.90;;;;;;5038711;28;20040;-72
2024/01/03 08:16:57;;;;;;;2.00;1.07;;;9.90;99.90;;;;;;5037140;28;20029;-75
2024/01/03 08:19:23;;;;;;;4.32;1.17;;;9.90;99.90;;;;;;5022004;28;20094;-74
2024/01/03 08:21:48;;;;;;;2.20;1.20;;;9.80;99.90;;;;;;5038797;28;20044;-74
2024/01/03 08:24:14;;;;;;;2.67;1.23;;;9.90;99.90;;;;;;5040784;28;20046;-75
2024/01/03 08:26:40;;;;;;;6.05;1.67;;;9.90;99.90;;;;;;5050823;28;20041;-75
2024/01/03 08:29:06;;;;;;;3.47;1.30;;;9.80;99.90;;;;;;5027368;28;20559;-75
2024/01/03 08:31:32;;;;;;;3.10;0.90;;;9.70;99.90;;;;;;5037580;28;20034;-75
2024/01/03 08:33:58;;;;;;;2.78;1.00;;;9.70;99.90;;;;;;5042012;28;20079;-73
2024/01/03 08:36:39;;;;;;;2.93;1.27;;;9.70;99.90;;;;;;5044881;28;20568;-73
2024/01/03 08:39:04;;;;;;;1.15;0.90;;;9.60;99.90;;;;;;5041076;28;20160;-74
2024/01/03 08:41:30;;;;;;;3.60;1.30;;;9.80;99.90;;;;;;5036630;28;20120;-74
2024/01/03 08:43:55;;;;;;;2.73;1.80;;;9.60;99.90;;;;;;5030640;28;20036;-73
2024/01/03 08:46:21;;;;;;;5.80;1.27;;;9.60;99.90;;;;;;5038241;28;20150;-75
2024/01/03 08:48:47;;;;;;;2.00;1.27;;;9.60;99.90;;;;;;5043309;28;20053;-73
2024/01/03 08:51:13;;;;;;;2.40;1.17;;;9.60;99.90;;;;;;5036093;28;20391;-73
2024/01/03 08:53:40;;;;;;;5.38;1.40;;;9.60;99.90;;;;;;5040353;28;20033;-74
2024/01/03 08:56:15;;;;;;;3.08;1.50;;;9.70;99.90;;;;;;5031844;28;20031;-73
2024/01/03 08:58:42;;;;;;;3.97;1.35;;;9.90;99.90;;;;;;5047277;28;20120;-74
2024/01/03 09:01:08;;;;;;;;;;;10.20;99.90;;;;;;5036590;28;20032;-74
2024/01/03 09:03:38;;;;;;;6.40;1.77;;;10.20;99.90;;;;;;5038283;28;20267;-73
2024/01/03 09:06:07;;;;;;;2.70;1.50;;;10.20;99.90;;;;;;5041917;28;20047;-75
2024/01/03 09:08:32;;;;;;;3.28;1.45;;;10.20;99.90;;;;;;5034249;28;20131;-75
2024/01/03 09:10:58;;;;;;;1.80;1.47;;;10.10;99.90;;;;;;5034005;28;20487;-73
2024/01/03 09:13:25;;;;;;;3.28;1.40;;;10.10;99.90;;;;;;5041920;28;20021;-73
2024/01/03 09:15:51;;;;;;;3.92;1.40;;;10.20;99.90;;;;;;5038641;28;20037;-74
2024/01/03 09:18:17;;;;;;;6.70;1.60;;;10.20;99.90;;;;;;5038635;28;20042;-73
2024/01/03 09:20:42;;;;;;;4.60;2.63;;;10.20;99.90;;;;;;5046792;28;20033;-72
2024/01/03 09:23:08;;;;;;;4.17;1.20;;;10.20;99.90;;;;;;5042756;28;20033;-74
2024/01/03 09:25:35;;;;;;;6.43;2.13;;;10.10;99.90;;;;;;5050831;28;20100;-74
2024/01/03 09:28:00;;;;;;;7.22;1.65;;;10.10;99.90;;;;;;5057822;28;20147;-74
2024/01/03 09:30:26;;;;;;;4.97;1.20;;;10.20;99.90;;;;;;5051942;28;20567;-73
2024/01/03 09:32:51;;;;;;;5.07;2.00;;;10.20;99.90;;;;;;5047526;28;20036;-74
2024/01/03 09:35:17;;;;;;;3.47;1.53;;;10.40;99.90;;;;;;5040406;28;20029;-74
2024/01/03 09:37:43;;;;;;;2.33;1.30;;;10.30;99.90;;;;;;5047108;28;20032;-74
2024/01/03 09:40:10;;;;;;;3.57;1.27;;;10.30;99.90;;;;;;5040898;28;20056;-74
2024/01/03 09:42:37;;;;;;;3.33;1.67;;;10.30;99.90;;;;;;5044206;28;20349;-74
2024/01/03 09:45:03;;;;;;;;;;;10.40;99.90;;;;;;5045485;28;20397;-73
2024/01/03 09:47:29;;;;;;;7.93;1.85;;;10.40;99.90;;;;;;5030333;28;19924;-74
2024/01/03 09:49:55;;;;;;;10.27;1.57;;;10.40;99.90;;;;;;5049595;28;20025;-74
2024/01/03 09:52:22;;;;;;;3.58;1.40;;;10.40;99.90;;;;;;5052301;28;20835;-74
2024/01/03 09:54:48;;;;;;;3.17;1.60;;;10.40;99.90;;;;;;5055296;28;20074;-75
2024/01/03 09:57:15;;;;;;;6.83;1.57;;;10.40;99.90;;;;;;5051104;28;20021;-76
2024/01/03 09:59:41;;;;;;;8.00;1.98;;;10.30;99.90;;;;;;5042553;28;20029;-75
2024/01/03 10:02:07;;;;;;;2.00;1.30;;;10.50;99.90;;;;;;5041704;28;20048;-73
2024/01/03 10:04:33;;;;;;;3.77;1.60;;;10.60;99.90;;;;;;5045709;28;20384;-75
2024/01/03 10:06:59;;;;;;;3.10;1.48;;;10.70;99.90;;;;;;5044716;28;20430;-75
2024/01/03 10:09:24;;;;;;;6.07;1.67;;;10.70;99.90;;;;;;5047678;28;20041;-74
2024/01/03 10:11:53;;;;;;;5.03;1.80;;;10.80;99.90;;;;;;5039591;28;20473;-74
2024/01/03 10:14:21;;;;;;;6.95;1.83;;;10.90;99.90;;;;;;5045229;28;20284;-75
2024/01/03 10:16:48;;;;;;;4.38;1.70;;;10.90;99.90;;;;;;5046326;28;20179;-74
2024/01/03 10:19:20;;;;;;;3.38;1.40;;;11.10;99.90;;;;;;5046352;28;20009;-74
2024/01/03 10:21:53;;;;;;;3.40;1.45;;;11.10;99.90;;;;;;5047030;28;20131;-74
2024/01/03 10:24:24;;;;;;;5.75;1.45;;;11.10;99.90;;;;;;5044682;28;20057;-75
2024/01/03 10:26:50;;;;;;;3.08;1.52;;;11.20;99.90;;;;;;5046285;28;20029;-74
2024/01/03 10:29:20;;;;;;;7.50;1.70;;;11.30;99.90;;;;;;5048671;28;20043;-75
2024/01/03 10:31:47;;;;;;;2.13;1.40;;;11.20;99.90;;;;;;5044246;28;20458;-72
2024/01/03 10:34:17;;;;;;;4.38;1.67;;;11.20;99.90;;;;;;5045119;28;20091;-72
2024/01/03 10:36:44;;;;;;;5.07;1.98;;;11.40;99.90;;;;;;5026149;28;20078;-73
2024/01/03 10:39:16;;;;;;;5.68;1.58;;;11.40;99.90;;;;;;5042329;28;20022;-73
2024/01/03 10:41:45;;;;;;;4.38;1.55;;;11.30;99.90;;;;;;5024083;28;20049;-72
2024/01/03 10:44:14;;;;;;;5.93;1.80;;;11.40;99.90;;;;;;5025434;28;20043;-73
2024/01/03 10:46:43;;;;;;;6.07;1.67;;;11.40;99.90;;;;;;5036023;28;20025;-71
2024/01/03 10:49:10;;;;;;;4.50;1.50;;;11.50;99.90;;;;;;5026354;28;20518;-71
2024/01/03 10:51:41;;;;;;;4.13;1.70;;;11.60;99.90;;;;;;5041591;28;20033;-71
2024/01/03 10:54:10;;;;;;;2.83;1.33;;;11.60;99.90;;;;;;5037875;28;20060;-71
2024/01/03 10:56:36;;;;;;;6.85;1.75;;;11.60;99.90;;;;;;5053424;28;20029;-71
2024/01/03 10:59:05;;;;;;;;;;;11.60;99.90;;;;;;5034809;28;20033;-71
2024/01/03 11:01:44;;;;;;;3.05;1.40;;;11.60;99.90;;;;;;5039656;28;20263;-71
2024/01/03 11:04:31;;;;;;;6.90;2.42;;;11.70;99.90;;;;;;5031362;28;20102;-71
2024/01/03 11:07:00;;;;;;;3.55;1.20;;;11.80;99.90;;;;;;5035735;28;20040;-71
2024/01/03 11:09:26;;;;;;;3.10;1.30;;;11.80;99.90;;;;;;5039285;28;20033;-71
2024/01/03 11:12:09;;;;;;;2.10;1.10;;;11.90;99.90;;;;;;5028736;28;20542;-71
2024/01/03 11:14:35;;;;;;;9.13;1.65;;;12.00;99.90;;;;;;5040139;28;20056;-71
2024/01/03 11:17:01;;;;;;;9.10;1.75;;;12.10;99.90;;;;;;5039004;28;20080;-71
2024/01/03 11:19:32;;;;;;;5.30;1.30;;;12.10;99.90;;;;;;5037119;28;20410;-71
2024/01/03 11:21:59;;;;;;;3.63;1.23;;;12.10;99.90;;;;;;5039305;28;20036;-70
2024/01/03 11:24:28;;;;;;;4.72;1.98;;;12.10;99.90;;;;;;5037327;28;20140;-70
2024/01/03 11:26:56;;;;;;;6.28;1.50;;;12.10;99.90;;;;;;5031705;28;20025;-71
2024/01/03 11:29:45;;;;;;;3.45;1.15;;;12.00;99.90;;;;;;5035197;28;20076;-70
2024/01/03 11:32:31;;;;;;;3.30;1.33;;;12.10;99.50;;;;;;5027668;28;20032;-71
2024/01/03 11:34:57;;;;;;;2.92;1.10;;;12.20;98.00;;;;;;5040598;28;20306;-70
2024/01/03 11:37:24;;;;;;;;;;;12.30;98.50;;;;;;5042152;28;20025;-71
2024/01/03 11:39:51;;;;;;;6.38;1.40;;;12.30;97.60;;;;;;5034675;28;19932;-71
2024/01/03 11:42:21;;;;;;;5.07;1.40;;;12.30;96.90;;;;;;5040097;28;20473;-71
2024/01/03 11:44:58;;;;;;;4.88;0.90;;;12.50;96.70;;;;;;5033041;28;20041;-70
2024/01/03 11:47:24;;;;;;;4.43;1.23;;;12.50;96.30;;;;;;5036384;28;20073;-70
2024/01/03 11:49:57;;;;;;;2.63;1.10;;;12.40;96.40;;;;;;5039339;28;20553;-70
2024/01/03 11:52:24;;;;;;;5.97;1.10;;;12.40;96.30;;;;;;5037809;28;20505;-70
2024/01/03 11:54:50;;;;;;;;;;;12.50;95.70;;;;;;5055707;28;20037;-70
2024/01/03 11:57:19;;;;;;;5.93;1.55;;;12.40;96.70;;;;;;5038690;28;19919;-70
2024/01/03 11:59:45;;;;;;;4.43;1.25;;;12.60;96.30;;;;;;5038755;28;20129;-70
2024/01/03 12:02:14;;;;;;;3.50;1.13;;;12.70;95.60;;;;;;5043997;28;20659;-70
2024/01/03 12:04:42;;;;;;;3.30;1.48;;;12.70;95.90;;;;;;5019600;28;20033;-70
2024/01/03 12:07:13;;;;;;;6.13;1.50;;;12.70;97.10;;;;;;5041673;28;20453;-70
2024/01/03 12:09:39;;;;;;;3.22;1.38;;;12.70;96.40;;;;;;5026381;28;20560;-70
2024/01/03 12:12:05;;;;;;;3.60;1.23;;;12.80;95.40;;;;;;5038270;28;20065;-70
2024/01/03 12:14:30;;;;;;;6.63;1.10;;;12.90;94.10;;;;;;5044830;28;20399;-70
2024/01/03 12:16:56;;;;;;;2.70;1.03;;;13.00;93.30;;;;;;5023047;28;20037;-70
2024/01/03 12:19:23;;;;;;;3.70;0.87;;;13.00;93.10;;;;;;5029781;28;20471;-71
2024/01/03 12:21:57;;;;;;;2.03;1.08;;;13.10;93.10;;;;;;5043540;28;20049;-70
2024/01/03 12:24:36;;;;;;;2.47;0.95;;;13.10;92.30;;;;;;5019053;28;20395;-70
2024/01/03 12:27:01;;;;;;;3.58;1.20;;;13.30;91.70;;;;;;5048235;28;20044;-70
2024/01/03 12:29:27;;;;;;;2.90;0.87;;;13.50;91.50;;;;;;5044437;28;20037;-71
2024/01/03 12:31:53;;;;;;;3.07;1.30;;;13.60;91.60;;;;;;5029825;28;20452;-71
2024/01/03 12:34:18;;;;;;;4.10;0.90;;;13.50;91.10;;;;;;5047508;28;20101;-70
2024/01/03 12:36:44;;;;;;;2.30;0.97;;;13.30;91.90;;;;;;5040285;28;20395;-70
2024/01/03 12:39:09;;;;;;;5.63;1.70;;;13.00;93.00;;;;;;5044699;28;20036;-73
2024/01/03 12:41:35;;;;;;;3.13;0.70;;;13.00;93.00;;;;;;5039276;28;20041;-74
2024/01/03 12:44:04;;;;;;;3.53;1.10;;;13.00;92.70;;;;;;5049740;28;20030;-74
2024/01/03 12:46:30;;;;;;;6.03;1.30;;;13.10;92.80;;;;;;5028263;28;20025;-74
2024/01/03 12:48:56;;;;;;;4.63;1.03;;;13.30;93.00;;;;;;5037642;28;20079;-74
2024/01/03 12:51:22;;;;;;;2.00;0.95;;;13.50;91.90;;;;;;5044040;28;20030;-74
2024/01/03 12:53:48;;;;;;;2.28;1.00;;;13.50;91.50;;;;;;5031986;28;20064;-73